Time;durP1;ratioP1;P1;durP2;ratioP2;P2;SDS_P1;SDS_P2;PMS_P1;PMS_P2;Temp;Humidity;BMP_temperature;BMP_pressure;BME280_temperature;BME280_humidity;BME280_pressure;Samples;Min_cycle;Max_cycle;Signal;HPM_P1;HPM_P2
2022/10/25 00:00:38;;;;;;;15.23;1.50;;;13.90;99.90;;;;;;5052086;28;20020;-64
2022/10/25 00:03:06;;;;;;;7.68;1.55;;;13.90;99.90;;;;;;5053827;28;20032;-64
2022/10/25 00:05:31;;;;;;;17.33;1.80;;;13.80;99.90;;;;;;5048812;28;20025;-63
2022/10/25 00:07:57;;;;;;;7.32;1.13;;;13.80;99.90;;;;;;5051532;28;20029;-63
2022/10/25 00:10:22;;;;;;;11.30;1.70;;;13.70;99.90;;;;;;5050651;28;20104;-63
2022/10/25 00:12:48;;;;;;;14.10;1.73;;;13.70;99.90;;;;;;5050076;28;20108;-63
2022/10/25 00:15:15;;;;;;;21.33;1.92;;;13.60;99.90;;;;;;5046102;28;20383;-63
2022/10/25 00:17:41;;;;;;;24.58;1.38;;;13.60;99.90;;;;;;5054436;28;20025;-64
2022/10/25 00:20:07;;;;;;;13.25;1.67;;;13.50;99.90;;;;;;5046409;28;20068;-63
2022/10/25 00:22:33;;;;;;;13.55;1.77;;;13.60;99.90;;;;;;5051401;28;20107;-64
2022/10/25 00:24:59;;;;;;;22.10;1.83;;;13.40;99.90;;;;;;5050633;28;20510;-64
2022/10/25 00:27:24;;;;;;;9.45;1.33;;;13.40;99.90;;;;;;5056227;28;20039;-64
2022/10/25 00:29:51;;;;;;;24.92;1.67;;;13.30;99.90;;;;;;5048630;28;20029;-64
2022/10/25 00:32:17;;;;;;;5.32;1.38;;;13.30;99.90;;;;;;5053358;28;20033;-64
2022/10/25 00:34:43;;;;;;;14.40;1.48;;;13.20;99.90;;;;;;5053376;28;20438;-64
2022/10/25 00:37:08;;;;;;;24.85;1.90;;;13.20;99.90;;;;;;5056743;28;20035;-64
2022/10/25 00:39:34;;;;;;;11.55;1.40;;;13.20;99.90;;;;;;5050788;28;20021;-63
2022/10/25 00:41:59;;;;;;;20.02;1.55;;;13.20;99.90;;;;;;5052250;28;20031;-64
2022/10/25 00:44:44;;;;;;;19.40;2.10;;;13.10;99.90;;;;;;5050683;28;20031;-62
2022/10/25 00:47:13;;;;;;;9.38;1.45;;;13.10;99.90;;;;;;5052790;28;20029;-63
2022/10/25 00:49:41;;;;;;;8.57;1.23;;;13.10;99.90;;;;;;5050236;28;20032;-63
2022/10/25 00:52:09;;;;;;;13.32;2.05;;;13.00;99.90;;;;;;5053551;28;20048;-64
2022/10/25 00:54:41;;;;;;;24.15;1.52;;;12.90;99.90;;;;;;5050607;28;20025;-64
2022/10/25 00:57:16;;;;;;;10.85;2.40;;;12.90;99.90;;;;;;5045919;28;20029;-64
2022/10/25 00:59:44;;;;;;;9.68;1.58;;;12.90;99.90;;;;;;5055570;28;20057;-65
2022/10/25 01:02:10;;;;;;;7.38;1.45;;;12.90;99.90;;;;;;5058272;28;21007;-62
2022/10/25 01:04:36;;;;;;;15.32;1.77;;;12.90;99.90;;;;;;5052755;28;20047;-65
2022/10/25 01:07:02;;;;;;;56.78;4.32;;;12.90;99.90;;;;;;5056559;28;20645;-63
2022/10/25 01:09:31;;;;;;;36.05;2.47;;;12.90;99.90;;;;;;5056493;28;20397;-63
2022/10/25 01:11:57;;;;;;;21.80;2.25;;;13.00;99.90;;;;;;5053137;28;20026;-63
2022/10/25 01:14:23;;;;;;;9.82;1.70;;;12.90;99.90;;;;;;5047437;28;20087;-64
2022/10/25 01:17:16;;;;;;;11.80;1.98;;;12.90;99.90;;;;;;5049254;28;20509;-65
2022/10/25 01:20:00;;;;;;;8.60;1.60;;;12.90;99.90;;;;;;5054361;28;20047;-64
2022/10/25 01:22:48;;;;;;;22.88;2.33;;;12.80;99.90;;;;;;5048599;28;20028;-65
2022/10/25 01:25:36;;;;;;;9.23;2.38;;;12.80;99.90;;;;;;5048988;28;20036;-65
2022/10/25 01:28:32;;;;;;;12.73;1.73;;;12.80;99.90;;;;;;5051250;28;20129;-65
2022/10/25 01:31:12;;;;;;;36.38;2.53;;;12.80;99.90;;;;;;5019466;28;20126;-65
2022/10/25 01:33:55;;;;;;;51.00;2.95;;;12.80;99.90;;;;;;5052036;28;20076;-65
2022/10/25 01:36:33;;;;;;;27.42;1.85;;;12.80;99.90;;;;;;5046996;28;20526;-65
2022/10/25 01:39:07;;;;;;;6.65;1.27;;;12.80;99.90;;;;;;5058762;28;20025;-64
2022/10/25 01:41:53;;;;;;;29.77;2.72;;;12.70;99.90;;;;;;5050067;28;20426;-64
2022/10/25 01:44:30;;;;;;;27.88;1.85;;;12.80;99.90;;;;;;5049561;28;20041;-64
2022/10/25 01:47:19;;;;;;;7.45;1.33;;;12.70;99.90;;;;;;5045877;28;20033;-64
2022/10/25 01:49:49;;;;;;;20.33;3.25;;;12.60;99.90;;;;;;5054069;28;20135;-64
2022/10/25 01:52:19;;;;;;;8.23;1.27;;;12.60;99.90;;;;;;5048179;28;20021;-64
2022/10/25 01:54:45;;;;;;;10.90;1.42;;;12.50;99.90;;;;;;5051743;28;20372;-64
2022/10/25 01:57:35;;;;;;;6.70;1.10;;;12.50;99.90;;;;;;5055754;28;20036;-64
2022/10/25 02:00:12;;;;;;;7.63;1.30;;;12.40;99.90;;;;;;5047117;28;20063;-63
2022/10/25 02:03:01;;;;;;;11.35;1.30;;;12.30;99.90;;;;;;5051785;28;20029;-62
2022/10/25 02:05:39;;;;;;;21.42;1.33;;;12.30;99.90;;;;;;5056029;28;20115;-63
2022/10/25 02:08:17;;;;;;;6.30;1.15;;;12.20;99.90;;;;;;5054371;28;20104;-64
2022/10/25 02:11:09;;;;;;;10.75;1.85;;;12.20;99.90;;;;;;5049018;28;20056;-64
2022/10/25 02:13:40;;;;;;;40.75;2.88;;;12.20;99.90;;;;;;5050822;28;20035;-63
2022/10/25 02:16:11;;;;;;;40.00;1.88;;;12.30;99.90;;;;;;5046502;28;20029;-64
2022/10/25 02:18:40;;;;;;;9.98;1.40;;;12.30;99.90;;;;;;5035020;28;20025;-63
2022/10/25 02:21:08;;;;;;;38.38;2.10;;;12.30;99.90;;;;;;5054250;28;20510;-63
2022/10/25 02:23:35;;;;;;;32.55;2.25;;;12.30;99.90;;;;;;5053682;28;20437;-63
2022/10/25 02:26:04;;;;;;;16.15;1.38;;;12.30;99.90;;;;;;5058543;28;20017;-63
2022/10/25 02:28:32;;;;;;;20.80;1.42;;;12.10;99.90;;;;;;5048716;28;20047;-65
2022/10/25 02:30:59;;;;;;;11.57;1.35;;;12.10;99.90;;;;;;5047003;28;20112;-63
2022/10/25 02:33:24;;;;;;;16.10;1.52;;;12.10;99.90;;;;;;5047147;28;20128;-63
2022/10/25 02:36:11;;;;;;;11.18;2.08;;;12.10;99.90;;;;;;5052843;28;20100;-64
2022/10/25 02:38:37;;;;;;;9.18;1.48;;;12.00;99.90;;;;;;5046019;28;20036;-64
2022/10/25 02:41:04;;;;;;;6.82;1.23;;;12.00;99.90;;;;;;5055819;28;20033;-64
2022/10/25 02:43:30;;;;;;;13.23;1.63;;;12.10;99.90;;;;;;5046809;28;20032;-64
2022/10/25 02:45:55;;;;;;;7.40;1.33;;;12.00;99.90;;;;;;5050520;28;20021;-63
2022/10/25 02:48:21;;;;;;;33.67;2.58;;;11.90;99.90;;;;;;5050346;28;20033;-64
2022/10/25 02:50:47;;;;;;;7.80;1.25;;;12.00;99.90;;;;;;5047097;28;20021;-63
2022/10/25 02:53:13;;;;;;;7.97;1.70;;;11.90;99.90;;;;;;5050458;28;20127;-63
2022/10/25 02:55:38;;;;;;;16.77;1.50;;;11.90;99.90;;;;;;5047185;28;20624;-62
2022/10/25 02:58:04;;;;;;;8.52;1.20;;;11.90;99.90;;;;;;5051079;28;20041;-63
2022/10/25 03:00:30;;;;;;;14.70;2.15;;;11.80;99.90;;;;;;5046144;28;20033;-64
2022/10/25 03:02:55;;;;;;;9.40;1.40;;;11.70;99.90;;;;;;5049009;28;20114;-62
2022/10/25 03:05:21;;;;;;;14.43;1.55;;;11.60;99.90;;;;;;5054063;28;20219;-64
2022/10/25 03:07:46;;;;;;;10.60;1.85;;;11.60;99.90;;;;;;5054641;28;20474;-64
2022/10/25 03:10:12;;;;;;;34.85;2.30;;;11.70;99.90;;;;;;5053985;28;20502;-64
2022/10/25 03:12:37;;;;;;;18.70;1.48;;;11.70;99.90;;;;;;5049962;28;20034;-64
2022/10/25 03:15:03;;;;;;;32.55;2.30;;;11.80;99.90;;;;;;5049259;28;20036;-65
2022/10/25 03:17:28;;;;;;;30.33;5.43;;;11.90;99.90;;;;;;5064897;22;20049;-59
2022/10/25 03:19:54;;;;;;;12.23;1.73;;;11.90;99.90;;;;;;5046031;28;20024;-57
2022/10/25 03:22:19;;;;;;;21.42;1.77;;;11.90;99.90;;;;;;5041853;28;20029;-61
2022/10/25 03:24:45;;;;;;;12.18;1.27;;;12.00;99.90;;;;;;5042449;28;20031;-60
2022/10/25 03:27:10;;;;;;;12.00;1.48;;;12.10;99.90;;;;;;5045785;28;20051;-59
2022/10/25 03:29:36;;;;;;;7.20;1.52;;;12.00;99.90;;;;;;5045954;28;20045;-61
2022/10/25 03:32:04;;;;;;;10.88;1.60;;;12.00;99.90;;;;;;5046255;28;20021;-61
2022/10/25 03:34:29;;;;;;;5.93;1.60;;;12.00;99.90;;;;;;5046880;28;20041;-60
2022/10/25 03:36:56;;;;;;;16.00;2.25;;;12.00;99.90;;;;;;5043129;28;20039;-62
2022/10/25 03:39:22;;;;;;;9.05;1.42;;;11.90;99.90;;;;;;5043609;28;20040;-60
2022/10/25 03:41:47;;;;;;;12.50;1.42;;;11.90;99.90;;;;;;5049061;28;20033;-59
2022/10/25 03:44:13;;;;;;;10.10;1.70;;;11.90;99.90;;;;;;5053289;28;20025;-60
2022/10/25 03:46:39;;;;;;;5.43;1.60;;;12.00;99.90;;;;;;5048760;28;20025;-60
2022/10/25 03:49:06;;;;;;;14.75;1.45;;;12.00;99.90;;;;;;5048028;28;20035;-57
2022/10/25 03:51:31;;;;;;;39.83;2.97;;;12.10;99.90;;;;;;5045378;28;20383;-61
2022/10/25 03:53:57;;;;;;;14.25;1.90;;;12.10;99.90;;;;;;5048361;28;20079;-61
2022/10/25 03:56:22;;;;;;;8.95;1.60;;;12.10;99.90;;;;;;5040562;28;20033;-55
2022/10/25 03:58:48;;;;;;;13.95;1.55;;;12.10;99.90;;;;;;5046637;28;20025;-60
2022/10/25 04:01:13;;;;;;;9.23;1.55;;;12.20;99.90;;;;;;5041913;28;20501;-62
2022/10/25 04:03:39;;;;;;;32.17;2.75;;;12.10;99.90;;;;;;5043441;28;20033;-61
2022/10/25 04:06:05;;;;;;;22.38;2.65;;;12.20;99.90;;;;;;5044926;28;20074;-58
2022/10/25 04:08:30;;;;;;;34.42;3.10;;;12.30;99.90;;;;;;5045316;28;20043;-61
2022/10/25 04:10:56;;;;;;;13.30;2.17;;;12.30;99.90;;;;;;5045970;28;20021;-60
2022/10/25 04:13:21;;;;;;;17.13;2.95;;;12.40;99.90;;;;;;5043513;28;20022;-60
2022/10/25 04:15:47;;;;;;;23.70;2.05;;;12.40;99.90;;;;;;5047041;28;20119;-61
2022/10/25 04:18:12;;;;;;;15.02;1.50;;;12.40;99.90;;;;;;5042321;28;20044;-59
2022/10/25 04:20:38;;;;;;;41.55;3.40;;;12.50;99.90;;;;;;5047302;28;20025;-61
2022/10/25 04:23:03;;;;;;;8.77;1.70;;;12.50;99.90;;;;;;5021231;28;20079;-59
2022/10/25 04:25:29;;;;;;;14.35;2.95;;;12.60;99.90;;;;;;5037252;28;20108;-60
2022/10/25 04:27:56;;;;;;;9.98;2.35;;;12.60;99.90;;;;;;5046395;28;20036;-57
2022/10/25 04:30:22;;;;;;;10.00;2.78;;;12.60;99.90;;;;;;5044140;28;20029;-59
2022/10/25 04:32:47;;;;;;;16.35;2.42;;;12.80;99.90;;;;;;5046087;28;20029;-62
2022/10/25 04:35:13;;;;;;;11.07;2.78;;;12.90;99.90;;;;;;5044074;28;20025;-58
2022/10/25 04:37:38;;;;;;;9.15;2.38;;;12.90;99.90;;;;;;5040356;28;20029;-61
2022/10/25 04:40:05;;;;;;;17.35;2.60;;;13.00;99.90;;;;;;5041008;28;20521;-61
2022/10/25 04:42:34;;;;;;;13.07;1.95;;;13.10;99.90;;;;;;5045870;28;20473;-62
2022/10/25 04:45:00;;;;;;;12.05;2.40;;;13.10;99.90;;;;;;5045096;28;20112;-62
2022/10/25 04:47:28;;;;;;;13.57;1.80;;;13.10;99.90;;;;;;5040091;28;20032;-62
2022/10/25 04:49:54;;;;;;;16.85;2.53;;;13.20;99.90;;;;;;5045674;28;20043;-62
2022/10/25 04:52:20;;;;;;;13.57;2.35;;;13.10;99.90;;;;;;5045163;28;20033;-62
2022/10/25 04:54:45;;;;;;;16.00;3.42;;;13.10;99.90;;;;;;5045056;28;20040;-62
2022/10/25 04:57:11;;;;;;;22.73;3.60;;;13.00;99.90;;;;;;5041955;28;20763;-62
2022/10/25 04:59:36;;;;;;;14.32;3.03;;;13.00;99.90;;;;;;5047136;28;20033;-60
2022/10/25 05:02:02;;;;;;;12.85;3.47;;;13.00;99.90;;;;;;5046988;28;20083;-62
2022/10/25 05:04:28;;;;;;;19.30;3.10;;;13.00;99.90;;;;;;5043105;28;20036;-63
2022/10/25 05:06:53;;;;;;;24.38;3.03;;;13.00;99.90;;;;;;5043649;28;20025;-61
2022/10/25 05:09:19;;;;;;;20.15;2.92;;;13.00;99.90;;;;;;5045049;28;20124;-60
2022/10/25 05:11:44;;;;;;;19.33;2.92;;;13.00;99.90;;;;;;5043753;28;20127;-60
2022/10/25 05:14:10;;;;;;;22.15;3.10;;;12.90;99.90;;;;;;5045297;28;20095;-60
2022/10/25 05:16:35;;;;;;;74.28;7.30;;;12.90;99.90;;;;;;5048700;28;20033;-61
2022/10/25 05:19:01;;;;;;;12.88;3.30;;;12.90;99.90;;;;;;5049614;28;20394;-59
2022/10/25 05:21:29;;;;;;;13.32;2.70;;;13.00;99.90;;;;;;5050300;28;20029;-60
2022/10/25 05:23:56;;;;;;;11.27;2.60;;;12.90;99.90;;;;;;5048460;28;20323;-58
2022/10/25 05:26:22;;;;;;;26.05;3.38;;;12.90;99.90;;;;;;5049645;28;20013;-58
2022/10/25 05:28:49;;;;;;;15.13;3.45;;;12.90;99.90;;;;;;5048848;28;20040;-52
2022/10/25 05:31:15;;;;;;;13.30;3.38;;;12.80;99.90;;;;;;5049360;28;20048;-59
2022/10/25 05:33:45;;;;;;;8.02;2.95;;;12.70;99.90;;;;;;5048202;28;20108;-59
2022/10/25 05:36:12;;;;;;;25.00;3.67;;;12.70;99.90;;;;;;5048904;28;20021;-57
2022/10/25 05:38:38;;;;;;;28.42;3.67;;;12.80;99.90;;;;;;5050979;28;20040;-60
2022/10/25 05:41:04;;;;;;;17.65;3.35;;;12.70;99.90;;;;;;5053327;28;20135;-58
2022/10/25 05:43:29;;;;;;;14.07;3.05;;;12.60;99.90;;;;;;5054629;28;20039;-55
2022/10/25 05:46:13;;;;;;;15.07;2.85;;;12.60;99.90;;;;;;5060275;28;20495;-60
2022/10/25 05:48:39;;;;;;;16.30;3.20;;;12.60;99.90;;;;;;5049022;28;20040;-52
2022/10/25 05:51:25;;;;;;;12.88;3.67;;;12.50;99.90;;;;;;5051784;28;20287;-60
2022/10/25 05:53:55;;;;;;;18.23;3.90;;;12.50;99.90;;;;;;5046141;28;20028;-59
2022/10/25 05:56:22;;;;;;;16.60;4.75;;;12.50;99.90;;;;;;5045881;28;20776;-57
2022/10/25 05:58:48;;;;;;;13.60;3.80;;;12.40;99.90;;;;;;5050359;28;20041;-59
2022/10/25 06:01:16;;;;;;;25.30;3.90;;;12.40;99.90;;;;;;5045055;28;20059;-57
2022/10/25 06:03:42;;;;;;;14.68;3.90;;;12.40;99.90;;;;;;5048841;28;20483;-56
2022/10/25 06:06:10;;;;;;;20.63;4.32;;;12.40;99.90;;;;;;5054156;28;20459;-60
2022/10/25 06:08:37;;;;;;;15.55;4.53;;;12.40;99.90;;;;;;5051000;28;20031;-61
2022/10/25 06:11:08;;;;;;;18.30;3.83;;;12.30;99.90;;;;;;5052390;28;20079;-57
2022/10/25 06:13:34;;;;;;;20.80;5.25;;;12.30;99.90;;;;;;5056227;28;20032;-60
2022/10/25 06:16:13;;;;;;;17.75;4.95;;;12.30;99.90;;;;;;5057742;28;20033;-56
2022/10/25 06:18:38;;;;;;;19.42;4.85;;;12.30;99.90;;;;;;5048220;28;20033;-57
2022/10/25 06:21:10;;;;;;;24.55;5.50;;;12.30;99.90;;;;;;5050982;28;20082;-60
2022/10/25 06:23:36;;;;;;;21.17;5.20;;;12.30;99.90;;;;;;5048757;28;20025;-57
2022/10/25 06:26:08;;;;;;;10.93;3.90;;;12.30;99.90;;;;;;5050973;28;20637;-58
2022/10/25 06:28:34;;;;;;;15.50;4.60;;;12.30;99.90;;;;;;5044953;28;20479;-56
2022/10/25 06:31:05;;;;;;;22.83;6.32;;;12.30;99.90;;;;;;5040310;28;20622;-58
2022/10/25 06:33:31;;;;;;;20.00;4.45;;;12.30;99.90;;;;;;5040853;28;20074;-56
2022/10/25 06:35:58;;;;;;;17.65;5.28;;;12.40;99.90;;;;;;5046943;28;20025;-57
2022/10/25 06:38:25;;;;;;;21.95;5.25;;;12.40;99.90;;;;;;5051047;28;20505;-57
2022/10/25 06:40:51;;;;;;;27.83;5.43;;;12.50;99.90;;;;;;5050534;28;20029;-57
2022/10/25 06:43:17;;;;;;;24.48;5.20;;;12.50;99.90;;;;;;5044731;28;20036;-58
2022/10/25 06:45:42;;;;;;;19.58;5.40;;;12.60;99.90;;;;;;5050361;28;20479;-60
2022/10/25 06:48:08;;;;;;;22.58;5.28;;;12.70;99.90;;;;;;5049490;28;20131;-60
2022/10/25 06:50:33;;;;;;;15.98;4.18;;;12.80;99.90;;;;;;5057478;28;20029;-59
2022/10/25 06:52:59;;;;;;;25.30;5.95;;;12.80;99.90;;;;;;5049462;28;20029;-58
2022/10/25 06:55:24;;;;;;;18.20;5.20;;;12.80;99.90;;;;;;5052275;28;20143;-61
2022/10/25 06:57:50;;;;;;;18.38;4.88;;;12.90;99.90;;;;;;5049364;28;20025;-57
2022/10/25 07:00:16;;;;;;;17.30;4.93;;;12.90;99.90;;;;;;5047094;28;20445;-56
2022/10/25 07:02:41;;;;;;;15.25;5.55;;;12.90;99.90;;;;;;5051133;28;20056;-58
2022/10/25 07:05:07;;;;;;;13.75;3.88;;;12.90;99.90;;;;;;5050246;28;20518;-57
2022/10/25 07:07:33;;;;;;;15.30;5.18;;;12.80;99.90;;;;;;5050902;28;20025;-60
2022/10/25 07:09:58;;;;;;;19.58;5.10;;;12.80;99.90;;;;;;5050629;28;20037;-58
2022/10/25 07:12:24;;;;;;;20.70;6.15;;;12.80;99.90;;;;;;5048654;28;20032;-57
2022/10/25 07:14:49;;;;;;;9.30;4.22;;;12.80;99.90;;;;;;5043383;28;20033;-61
2022/10/25 07:17:15;;;;;;;15.85;4.65;;;12.80;99.90;;;;;;5042714;28;20037;-60
2022/10/25 07:19:40;;;;;;;23.88;4.25;;;12.80;99.90;;;;;;5048169;28;20044;-58
2022/10/25 07:22:07;;;;;;;23.40;4.50;;;12.90;99.90;;;;;;5047643;28;20053;-56
2022/10/25 07:24:32;;;;;;;21.05;4.65;;;12.90;99.90;;;;;;5043670;28;20029;-56
2022/10/25 07:26:58;;;;;;;31.08;5.88;;;12.90;99.90;;;;;;5049355;28;20021;-57
2022/10/25 07:29:23;;;;;;;36.25;7.35;;;12.90;99.90;;;;;;5046865;28;20689;-57
2022/10/25 07:31:49;;;;;;;24.17;6.32;;;13.00;99.90;;;;;;5053949;28;20580;-56
2022/10/25 07:34:15;;;;;;;20.60;6.70;;;13.00;99.90;;;;;;5050172;28;20434;-59
2022/10/25 07:36:41;;;;;;;26.17;7.22;;;13.10;99.90;;;;;;5052278;28;20727;-60
2022/10/25 07:39:06;;;;;;;14.82;4.93;;;13.10;99.90;;;;;;5046889;28;20025;-57
2022/10/25 07:41:32;;;;;;;22.25;5.80;;;13.20;99.90;;;;;;5054120;28;20446;-53
2022/10/25 07:43:57;;;;;;;18.65;5.88;;;13.20;99.90;;;;;;5053281;28;20017;-56
2022/10/25 07:46:23;;;;;;;15.73;5.40;;;13.30;99.90;;;;;;5059013;28;20029;-53
2022/10/25 07:48:51;;;;;;;22.83;5.75;;;13.30;99.90;;;;;;5050077;28;20037;-59
2022/10/25 07:51:17;;;;;;;55.40;7.45;;;13.30;99.90;;;;;;5049265;28;20064;-58
2022/10/25 07:53:42;;;;;;;12.50;5.40;;;13.30;99.90;;;;;;5044925;28;20052;-61
2022/10/25 07:56:16;;;;;;;15.50;6.07;;;13.30;99.90;;;;;;5053210;28;20033;-61
2022/10/25 07:58:42;;;;;;;18.38;7.97;;;13.30;99.90;;;;;;5048240;28;20025;-59
2022/10/25 08:01:08;;;;;;;22.63;6.65;;;13.30;99.90;;;;;;5049396;28;20052;-59
2022/10/25 08:03:34;;;;;;;24.27;7.00;;;13.30;99.90;;;;;;5052173;28;20029;-59
2022/10/25 08:06:00;;;;;;;19.30;6.97;;;13.30;99.90;;;;;;5052091;28;20071;-59
2022/10/25 08:08:27;;;;;;;22.00;6.88;;;13.30;99.90;;;;;;5056788;28;20025;-59
2022/10/25 08:10:53;;;;;;;14.13;7.15;;;13.40;99.90;;;;;;5054523;28;20033;-58
2022/10/25 08:13:19;;;;;;;16.50;7.30;;;13.40;99.90;;;;;;5055218;28;20032;-57
2022/10/25 08:15:55;;;;;;;17.38;7.00;;;13.40;99.90;;;;;;5059452;28;20028;-57
2022/10/25 08:18:22;;;;;;;16.48;6.82;;;13.50;99.90;;;;;;5053332;28;20073;-59
2022/10/25 08:20:47;;;;;;;23.63;7.35;;;13.50;99.90;;;;;;5058853;28;20033;-59
2022/10/25 08:23:14;;;;;;;12.05;6.65;;;13.60;99.90;;;;;;5055288;28;20017;-58
2022/10/25 08:25:40;;;;;;;16.25;6.95;;;13.70;99.90;;;;;;5056189;28;20099;-56
2022/10/25 08:28:05;;;;;;;28.15;7.47;;;13.80;99.90;;;;;;5053399;28;20025;-57
2022/10/25 08:30:31;;;;;;;28.02;7.15;;;13.90;99.90;;;;;;5055376;28;20036;-58
2022/10/25 08:32:56;;;;;;;27.13;8.48;;;14.00;99.90;;;;;;5051817;28;20111;-59
2022/10/25 08:35:22;;;;;;;12.93;5.55;;;14.10;99.90;;;;;;5056216;28;20086;-55
2022/10/25 08:37:47;;;;;;;12.52;5.80;;;14.20;99.90;;;;;;5051403;28;20533;-58
2022/10/25 08:40:18;;;;;;;24.77;6.47;;;14.30;99.90;;;;;;5051596;28;20033;-58
2022/10/25 08:43:04;;;;;;;37.35;8.23;;;14.40;99.90;;;;;;5056452;28;20071;-57
2022/10/25 08:45:40;;;;;;;16.90;6.18;;;14.50;99.90;;;;;;5049817;28;20029;-58
2022/10/25 08:48:16;;;;;;;24.33;7.03;;;14.50;99.90;;;;;;5057946;28;20430;-59
2022/10/25 08:50:45;;;;;;;16.85;6.00;;;14.60;99.90;;;;;;5053384;28;20040;-58
2022/10/25 08:53:25;;;;;;;23.08;5.07;;;14.60;99.90;;;;;;5067873;28;20386;-59
2022/10/25 08:55:51;;;;;;;11.25;4.95;;;14.80;99.90;;;;;;5053473;28;20032;-58
2022/10/25 08:58:34;;;;;;;17.02;6.03;;;14.80;99.90;;;;;;5069050;28;20016;-57
2022/10/25 09:01:03;;;;;;;10.73;4.25;;;14.90;99.90;;;;;;5055547;28;20558;-59
2022/10/25 09:03:29;;;;;;;14.93;4.82;;;15.00;99.90;;;;;;5060680;28;20486;-52
2022/10/25 09:06:04;;;;;;;21.08;5.57;;;15.10;99.90;;;;;;5056176;28;20029;-60
2022/10/25 09:09:08;;;;;;;24.80;6.38;;;15.10;99.90;;;;;;5056517;28;20444;-58
2022/10/25 09:12:05;;;;;;;17.90;4.47;;;15.10;99.90;;;;;;5046888;28;20072;-58
2022/10/25 09:15:01;;;;;;;27.27;4.82;;;15.10;99.90;;;;;;5054310;28;20398;-57
2022/10/25 09:17:50;;;;;;;13.38;5.07;;;15.10;99.90;;;;;;5063065;28;20035;-55
2022/10/25 09:20:32;;;;;;;18.63;4.30;;;15.30;99.90;;;;;;5069236;22;20037;-59
2022/10/25 09:23:11;;;;;;;21.65;5.63;;;15.40;99.90;;;;;;5056792;28;20096;-60
2022/10/25 09:25:50;;;;;;;15.93;3.70;;;15.40;99.90;;;;;;5056495;28;20033;-59
2022/10/25 09:28:28;;;;;;;19.30;5.20;;;15.40;99.90;;;;;;5058266;28;20032;-60
2022/10/25 09:30:58;;;;;;;26.50;5.70;;;15.40;99.90;;;;;;5054172;28;20552;-59
2022/10/25 09:33:29;;;;;;;25.13;5.68;;;15.50;99.90;;;;;;5051292;28;20032;-56
2022/10/25 09:35:57;;;;;;;11.77;3.42;;;15.40;99.90;;;;;;5053245;28;20495;-57
2022/10/25 09:38:32;;;;;;;11.05;3.22;;;15.50;99.90;;;;;;5051082;28;20040;-58
2022/10/25 09:41:04;;;;;;;29.85;3.20;;;15.50;99.90;;;;;;5051347;28;20407;-59
2022/10/25 09:43:37;;;;;;;22.80;3.17;;;15.60;99.90;;;;;;5055992;28;20021;-57
2022/10/25 09:46:15;;;;;;;12.98;3.15;;;15.60;99.90;;;;;;5051480;28;20487;-59
2022/10/25 09:48:51;;;;;;;42.10;3.67;;;15.60;99.90;;;;;;5050304;28;20036;-58
2022/10/25 09:51:38;;;;;;;13.32;2.95;;;15.70;99.90;;;;;;5045664;28;20108;-58
2022/10/25 09:54:14;;;;;;;23.48;3.38;;;15.80;99.90;;;;;;5047561;28;20117;-59
2022/10/25 09:56:40;;;;;;;10.48;1.70;;;15.80;99.90;;;;;;5045707;28;20470;-59
2022/10/25 09:59:12;;;;;;;10.60;1.25;;;15.60;99.90;;;;;;5049166;28;20052;-58
2022/10/25 10:01:38;;;;;;;9.20;1.02;;;15.60;99.90;;;;;;5048023;28;20100;-55
2022/10/25 10:04:37;;;;;;;10.70;1.42;;;15.60;99.90;;;;;;5049544;28;20432;-58
2022/10/25 10:07:22;;;;;;;12.65;1.67;;;15.50;99.90;;;;;;5016864;28;20687;-58
2022/10/25 10:09:50;;;;;;;49.20;2.85;;;15.50;99.90;;;;;;5050488;28;20041;-59
2022/10/25 10:12:50;;;;;;;10.88;1.75;;;15.50;99.90;;;;;;5049408;28;20578;-60
2022/10/25 10:15:27;;;;;;;1.85;1.05;;;15.50;99.90;;;;;;5045651;28;20600;-59
2022/10/25 10:18:21;;;;;;;26.80;2.40;;;15.50;99.90;;;;;;5043632;28;20040;-58
2022/10/25 10:21:11;;;;;;;23.03;2.03;;;15.50;99.90;;;;;;5048309;28;20112;-59
2022/10/25 10:23:50;;;;;;;18.95;1.67;;;15.50;99.90;;;;;;5039415;28;20414;-59
2022/10/25 10:26:35;;;;;;;8.60;1.33;;;15.50;99.90;;;;;;5048577;28;20025;-58
2022/10/25 10:29:19;;;;;;;9.32;1.40;;;15.60;99.90;;;;;;5043747;28;20033;-59
2022/10/25 10:31:48;;;;;;;12.20;1.70;;;15.60;99.90;;;;;;5045467;28;20082;-58
2022/10/25 10:34:24;;;;;;;3.65;1.10;;;15.60;99.90;;;;;;5051131;28;20488;-58
2022/10/25 10:37:03;;;;;;;6.95;1.20;;;15.60;99.90;;;;;;5048640;28;20025;-58
2022/10/25 10:39:29;;;;;;;4.20;0.90;;;15.70;99.90;;;;;;5045474;28;20036;-57
2022/10/25 10:42:02;;;;;;;5.10;1.00;;;15.70;99.90;;;;;;5053134;28;20032;-58
2022/10/25 10:44:33;;;;;;;10.05;1.08;;;15.70;99.90;;;;;;5046849;28;20029;-58
2022/10/25 10:47:00;;;;;;;21.85;2.15;;;15.80;99.90;;;;;;5049380;28;20025;-57
2022/10/25 10:49:34;;;;;;;7.85;1.42;;;15.90;99.90;;;;;;5042316;28;20071;-59
2022/10/25 10:52:01;;;;;;;26.75;2.22;;;15.90;99.90;;;;;;5044351;28;20020;-57
2022/10/25 10:54:34;;;;;;;20.58;1.30;;;15.90;99.90;;;;;;5050168;28;20036;-59
2022/10/25 10:57:03;;;;;;;8.38;1.20;;;16.00;99.90;;;;;;5051140;28;20064;-57
2022/10/25 10:59:39;;;;;;;8.65;1.08;;;16.00;99.90;;;;;;5048399;28;20036;-60
2022/10/25 11:02:35;;;;;;;10.48;1.42;;;16.00;99.90;;;;;;5047785;28;20475;-55
2022/10/25 11:05:01;;;;;;;7.43;0.88;;;16.10;99.90;;;;;;5014737;28;20145;-58
2022/10/25 11:07:34;;;;;;;3.90;0.73;;;16.10;99.90;;;;;;5048401;28;20503;-58
2022/10/25 11:10:19;;;;;;;6.72;1.00;;;16.20;99.90;;;;;;5047784;28;20017;-57
2022/10/25 11:13:02;;;;;;;8.48;0.70;;;16.30;99.90;;;;;;5040378;28;20070;-57
2022/10/25 11:15:32;;;;;;;8.02;1.05;;;16.40;99.90;;;;;;5047938;28;20075;-59
2022/10/25 11:18:03;;;;;;;16.58;1.15;;;16.50;99.90;;;;;;5050596;28;20033;-57
2022/10/25 11:20:32;;;;;;;14.13;1.85;;;16.50;99.90;;;;;;5048730;28;20082;-58
2022/10/25 11:23:05;;;;;;;7.18;0.88;;;16.50;99.90;;;;;;5050234;28;20490;-58
2022/10/25 11:25:46;;;;;;;4.72;0.70;;;16.50;99.90;;;;;;5035860;28;20030;-55
2022/10/25 11:28:30;;;;;;;5.10;0.85;;;16.60;99.90;;;;;;5046420;28;20049;-56
2022/10/25 11:31:20;;;;;;;3.45;0.77;;;16.70;99.90;;;;;;5046982;28;20025;-58
2022/10/25 11:34:12;;;;;;;3.08;0.60;;;16.70;99.90;;;;;;5045577;28;20510;-56
2022/10/25 11:36:46;;;;;;;7.88;0.68;;;16.70;99.90;;;;;;5049252;28;20032;-58
2022/10/25 11:39:21;;;;;;;4.53;0.60;;;16.80;99.90;;;;;;5048678;28;20499;-56
2022/10/25 11:41:47;;;;;;;;;;;16.80;99.90;;;;;;5047118;28;20043;-59
2022/10/25 11:44:29;;;;;;;6.88;0.95;;;17.00;99.90;;;;;;5045844;28;19915;-57
2022/10/25 11:47:11;;;;;;;7.55;0.82;;;17.00;99.90;;;;;;5045032;28;20028;-56
2022/10/25 11:50:13;;;;;;;6.28;0.70;;;17.10;99.90;;;;;;5034456;28;20422;-56
2022/10/25 11:52:59;;;;;;;8.27;1.08;;;17.10;99.90;;;;;;5048902;28;20025;-59
2022/10/25 11:55:34;;;;;;;6.38;1.05;;;17.30;99.90;;;;;;5039980;28;20056;-58
2022/10/25 11:58:08;;;;;;;7.13;0.70;;;17.20;99.90;;;;;;5048301;28;20029;-59
2022/10/25 12:00:42;;;;;;;8.32;1.05;;;17.20;99.90;;;;;;5048227;28;20116;-55
2022/10/25 12:03:25;;;;;;;6.95;0.80;;;17.20;99.90;;;;;;5048090;28;20506;-60
2022/10/25 12:06:28;;;;;;;7.90;1.00;;;17.10;99.90;;;;;;5046270;28;20025;-55
2022/10/25 12:08:59;;;;;;;16.33;1.40;;;17.00;99.90;;;;;;5017851;28;20116;-59
2022/10/25 12:11:37;;;;;;;6.97;0.90;;;17.00;99.90;;;;;;5048421;28;20498;-54
2022/10/25 12:14:11;;;;;;;6.10;0.90;;;17.00;99.90;;;;;;5047266;28;20107;-55
2022/10/25 12:16:37;;;;;;;5.80;0.80;;;16.90;99.90;;;;;;5045397;28;20045;-54
2022/10/25 12:19:15;;;;;;;5.55;1.23;;;17.00;99.90;;;;;;5044829;28;20036;-59
2022/10/25 12:21:54;;;;;;;11.60;1.10;;;17.00;99.90;;;;;;5038781;28;20026;-57
2022/10/25 12:24:30;;;;;;;9.57;0.90;;;17.00;99.90;;;;;;5041165;28;20021;-57
2022/10/25 12:26:56;;;;;;;7.32;0.80;;;17.10;99.90;;;;;;5052165;28;20025;-58
2022/10/25 12:29:32;;;;;;;11.10;1.00;;;17.10;99.90;;;;;;5050483;28;20029;-58
2022/10/25 12:32:00;;;;;;;6.13;0.70;;;17.20;99.90;;;;;;5054099;28;20032;-59
2022/10/25 12:34:43;;;;;;;5.20;1.13;;;17.20;99.90;;;;;;5054881;28;20033;-59
2022/10/25 12:37:19;;;;;;;13.00;0.65;;;17.20;99.90;;;;;;5047220;28;20033;-60
2022/10/25 12:39:45;;;;;;;5.90;0.80;;;17.30;99.90;;;;;;5051655;28;20126;-57
2022/10/25 12:42:28;;;;;;;5.38;0.57;;;17.30;99.90;;;;;;5051452;28;20053;-56
2022/10/25 12:45:35;;;;;;;5.25;0.77;;;17.30;99.90;;;;;;5053267;28;20506;-59
2022/10/25 12:48:22;;;;;;;5.18;0.80;;;17.40;99.90;;;;;;5001974;28;20055;-56
2022/10/25 12:51:03;;;;;;;3.92;0.60;;;17.60;99.90;;;;;;5055584;28;20028;-56
2022/10/25 12:53:56;;;;;;;4.75;0.68;;;17.90;99.90;;;;;;5052071;28;20041;-58
2022/10/25 12:56:47;;;;;;;6.20;0.82;;;18.00;99.90;;;;;;5055932;28;20033;-59
2022/10/25 12:59:39;;;;;;;5.32;0.60;;;17.80;99.90;;;;;;5042934;28;20063;-57
2022/10/25 13:02:41;;;;;;;5.07;1.02;;;17.70;99.90;;;;;;5056122;28;20025;-59